Boca do Acre, Brazil
Current Conditions -  °F | °C
As of 2:00 PM on Saturday 20 Dec 2014 (Local Time) from SBRB Reporting Station
Broken Clouds Broken Clouds  
Wind Chill: 86°   Ceiling: 2500
Heat Index: 92°   Visibility: 6mi
Dew Point: 72°   Wind: 13mph
Humidity: 62%   Direction: 360°N
Pressure: 29.77"   Gusts: NA
Location:  8.74°S, 67.4°W
Report Text: SBRB 201800Z 36011KT 9999 BKN025 FEW030TCU SCT100 30/22 Q1008
Loading
Personal Weather Stations






























Interactive Weather Map New forecast layout! Learn more

10-Day Weather Forecast

Advertisements
Track Severe Weather on mobile